Astoria, New York
Current Conditions -  °F | °C
As of 7:51 PM on Wednesday 22 Oct 2014 (Local Time) from KNYC Reporting Station
Light Rain Light Rain  
Wind Chill: 52°   Ceiling: 1400
Heat Index: 52°   Visibility: 5mi
Dew Point: 49°   Wind: 9mph
Humidity: 89%   Direction: 20°NNE
Pressure: 29.81"   Gusts: NA
Location:  40.77°N, 73.93°W
Report Text: KNYC 222351Z AUTO 02008KT 310V050 5SM -RA BR BKN014 BKN020 OVC025 11/09 A2981 RMK AO2 SLP087 P0020 60045 T01110094 10139 20111 58015 $
Loading
Personal Weather Stations






























Interactive Weather Map
Tropical Storm Tracking
New forecast layout! Learn more

10-Day Weather Forecast

Advertisements
Track Severe Weather on mobile